createdAt,value
2022-10-01T00:07:17.642Z,100.00
2022-10-01T00:22:19.389Z,100.00
2022-10-01T00:37:22.587Z,100.00
2022-10-01T00:52:29.343Z,100.00
2022-10-01T01:07:33.424Z,100.00
2022-10-01T01:22:42.777Z,100.00
2022-10-01T01:37:51.482Z,100.00
2022-10-01T01:52:54.143Z,100.00
2022-10-01T02:08:16.770Z,100.00
2022-10-01T02:23:25.603Z,100.00
2022-10-01T02:38:28.980Z,100.00
2022-10-01T02:54:04.083Z,100.00
2022-10-01T03:09:08.870Z,100.00
2022-10-01T03:24:10.680Z,100.00
2022-10-01T03:39:12.662Z,100.00
2022-10-01T03:54:14.737Z,100.00
2022-10-01T04:09:16.591Z,100.00
2022-10-01T04:24:18.322Z,100.00
2022-10-01T04:39:20.255Z,100.00
2022-10-01T04:54:22.047Z,100.00
2022-10-01T05:09:23.813Z,100.00
2022-10-01T05:24:26.334Z,100.00
2022-10-01T05:39:28.323Z,100.00
2022-10-01T05:54:30.101Z,100.00
2022-10-01T06:09:31.862Z,100.00
2022-10-01T06:24:34.102Z,100.00
2022-10-01T06:39:35.964Z,100.00
2022-10-01T06:54:37.771Z,100.00
2022-10-01T07:09:39.911Z,100.00
2022-10-01T07:24:42.096Z,100.00
2022-10-01T07:39:44.488Z,100.00
2022-10-01T07:54:48.172Z,100.00
2022-10-01T08:09:49.959Z,100.00
2022-10-01T08:24:51.733Z,100.00
2022-10-01T08:39:54.863Z,100.00
2022-10-01T08:55:16.331Z,100.00
2022-10-01T09:10:25.051Z,100.00
2022-10-01T09:25:27.596Z,100.00
2022-10-01T09:40:39.223Z,96.85
2022-10-01T09:55:44.478Z,96.97
2022-10-01T10:10:58.532Z,97.00
2022-10-01T10:26:06.382Z,96.23
2022-10-01T10:41:19.872Z,92.15
2022-10-01T10:56:25.539Z,89.96
2022-10-01T11:11:55.276Z,82.67
2022-10-01T11:27:11.312Z,80.46
2022-10-01T11:42:22.356Z,76.59
2022-10-01T11:57:44.779Z,76.45
2022-10-01T12:12:58.260Z,76.46
2022-10-01T12:28:12.717Z,76.65
2022-10-01T12:44:01.069Z,74.67
2022-10-01T12:59:19.694Z,76.74
2022-10-01T13:14:22.700Z,77.49
2022-10-01T13:29:55.897Z,76.33
2022-10-01T13:45:22.287Z,78.51
2022-10-01T14:00:24.496Z,80.41
2022-10-01T14:15:51.472Z,81.84
2022-10-01T14:31:03.633Z,82.54
2022-10-01T14:46:12.876Z,84.29
2022-10-01T15:01:23.250Z,84.84
2022-10-01T15:16:28.108Z,87.63
2022-10-01T15:31:30.532Z,89.69
2022-10-01T15:46:36.206Z,90.70
2022-10-01T16:01:40.251Z,91.51
2022-10-01T16:16:42.151Z,94.12
2022-10-01T16:31:45.414Z,94.60
2022-10-01T16:46:49.807Z,94.52
2022-10-01T17:01:54.994Z,95.23
2022-10-01T17:16:56.972Z,97.71
2022-10-01T17:31:58.945Z,100.00
2022-10-01T17:47:01.024Z,100.00
2022-10-01T18:02:13.923Z,100.00
2022-10-01T18:17:25.355Z,100.00
2022-10-01T18:32:33.372Z,100.00
2022-10-01T18:47:44.098Z,100.00
2022-10-01T19:03:10.095Z,100.00
2022-10-01T19:18:24.000Z,100.00
2022-10-01T19:33:25.953Z,100.00
2022-10-01T19:48:44.427Z,100.00
2022-10-01T20:03:59.695Z,100.00
2022-10-01T20:19:39.719Z,100.00
2022-10-01T20:35:03.089Z,100.00
2022-10-01T20:50:12.460Z,100.00
2022-10-01T21:05:33.505Z,100.00
2022-10-01T21:21:01.247Z,100.00
2022-10-01T21:36:07.895Z,100.00
2022-10-01T21:51:17.685Z,100.00
2022-10-01T22:06:35.351Z,100.00
2022-10-01T22:21:42.298Z,100.00
2022-10-01T22:36:50.594Z,100.00
2022-10-01T22:52:09.230Z,100.00
2022-10-01T23:07:41.050Z,100.00
2022-10-01T23:23:19.765Z,100.00
2022-10-01T23:38:24.383Z,100.00
2022-10-01T23:54:03.494Z,100.00
